General Aviation Weather

Text Reports

Enter one or more of the following location identifiers separated by a space:

Zip Code, Four-Character ICAO or Three-Character IATA airport codes.

METAR - Aviation Routine Weather Report
KBTP - Butler, Pennsylvania
Updated at 12:35 AM GMT on September 18, 2014 (8:35 PM EDT):
METAR KBTP 180035Z AUTO 00000KT 10SM CLR 12/08 A3001 RMK AO1
TAF - Terminal Area Forecast
KBTP - Butler, Pennsylvania
Updated at 12:35 AM GMT on September 18, 2014 (8:35 PM EDT):
No TAF is currently available for this location.
Decoded:
No decoded TAF is available.
PIREP - Pilot Weather Report
KBTP - Butler, Pennsylvania
Updated at 12:35 AM GMT on September 18, 2014 (8:35 PM EDT):
No PIREP is currently available for this location.
AIRMET - Airmens Meteorological Information
KBTP - Butler, Pennsylvania
Updated at 12:35 AM GMT on September 18, 2014 (8:35 PM EDT):
No AIRMET is currently available for this location.
SIGMET - Significant Meteorological Information
KBTP - Butler, Pennsylvania
Updated at 12:35 AM GMT on September 18, 2014 (8:35 PM EDT):
No SIGMET is currently available for this location.
NOTAM - Notice to Airmen
KBTP - Butler, Pennsylvania
Updated at 12:35 AM GMT on September 18, 2014 (8:35 PM EDT):
No NOTAM is currently available for this location.
Forecast Area
KBTP - Butler, Pennsylvania
Updated at 12:35 AM GMT on September 18, 2014 (8:35 PM EDT):
No NOTAM is currently available for this location.
Aviation Weather Maps